sensor_id;sensor_type;location;lat;lon;timestamp;P1;durP1;ratioP1;P2;durP2;ratioP2
3916;SDS011;1973;50.518;7.318;2023-07-31T00:02:25;3.37;;;2.30;;
3916;SDS011;1973;50.518;7.318;2023-07-31T00:04:51;4.60;;;2.03;;
3916;SDS011;1973;50.518;7.318;2023-07-31T00:07:18;5.13;;;1.90;;
3916;SDS011;1973;50.518;7.318;2023-07-31T00:09:45;2.60;;;2.17;;
3916;SDS011;1973;50.518;7.318;2023-07-31T00:12:11;3.70;;;2.40;;
3916;SDS011;1973;50.518;7.318;2023-07-31T00:14:38;4.70;;;2.37;;
3916;SDS011;1973;50.518;7.318;2023-07-31T00:17:04;5.70;;;2.97;;
3916;SDS011;1973;50.518;7.318;2023-07-31T00:19:31;4.43;;;2.57;;
3916;SDS011;1973;50.518;7.318;2023-07-31T00:21:58;3.73;;;2.33;;
3916;SDS011;1973;50.518;7.318;2023-07-31T00:24:24;3.47;;;2.97;;
3916;SDS011;1973;50.518;7.318;2023-07-31T00:26:51;4.20;;;3.30;;
3916;SDS011;1973;50.518;7.318;2023-07-31T00:29:17;5.37;;;3.00;;
3916;SDS011;1973;50.518;7.318;2023-07-31T00:31:44;4.10;;;2.60;;
3916;SDS011;1973;50.518;7.318;2023-07-31T00:34:11;4.37;;;2.90;;
3916;SDS011;1973;50.518;7.318;2023-07-31T00:36:37;4.00;;;2.50;;
3916;SDS011;1973;50.518;7.318;2023-07-31T00:39:04;5.10;;;3.20;;
3916;SDS011;1973;50.518;7.318;2023-07-31T00:41:31;6.57;;;3.03;;
3916;SDS011;1973;50.518;7.318;2023-07-31T00:43:57;4.40;;;2.80;;
3916;SDS011;1973;50.518;7.318;2023-07-31T00:46:24;5.63;;;2.87;;
3916;SDS011;1973;50.518;7.318;2023-07-31T00:48:50;4.63;;;2.70;;
3916;SDS011;1973;50.518;7.318;2023-07-31T00:51:17;7.73;;;2.60;;
3916;SDS011;1973;50.518;7.318;2023-07-31T00:53:44;5.40;;;2.47;;
3916;SDS011;1973;50.518;7.318;2023-07-31T00:56:11;4.60;;;3.47;;
3916;SDS011;1973;50.518;7.318;2023-07-31T00:58:38;5.83;;;2.90;;
3916;SDS011;1973;50.518;7.318;2023-07-31T01:01:05;6.77;;;3.20;;
3916;SDS011;1973;50.518;7.318;2023-07-31T01:03:32;7.37;;;3.23;;
3916;SDS011;1973;50.518;7.318;2023-07-31T01:06:19;4.40;;;2.77;;
3916;SDS011;1973;50.518;7.318;2023-07-31T01:09:03;5.10;;;2.80;;
3916;SDS011;1973;50.518;7.318;2023-07-31T01:11:34;5.47;;;2.80;;
3916;SDS011;1973;50.518;7.318;2023-07-31T01:14:03;4.37;;;2.80;;
3916;SDS011;1973;50.518;7.318;2023-07-31T01:16:30;4.83;;;3.17;;
3916;SDS011;1973;50.518;7.318;2023-07-31T01:18:56;5.10;;;3.00;;
3916;SDS011;1973;50.518;7.318;2023-07-31T01:24:21;6.07;;;3.20;;
3916;SDS011;1973;50.518;7.318;2023-07-31T01:27:09;7.27;;;3.40;;
3916;SDS011;1973;50.518;7.318;2023-07-31T01:29:41;5.10;;;2.77;;
3916;SDS011;1973;50.518;7.318;2023-07-31T01:32:12;5.70;;;3.00;;
3916;SDS011;1973;50.518;7.318;2023-07-31T01:34:39;5.70;;;3.50;;
3916;SDS011;1973;50.518;7.318;2023-07-31T01:37:07;4.43;;;3.27;;
3916;SDS011;1973;50.518;7.318;2023-07-31T01:39:34;4.70;;;3.60;;
3916;SDS011;1973;50.518;7.318;2023-07-31T01:42:01;7.27;;;3.40;;
3916;SDS011;1973;50.518;7.318;2023-07-31T01:44:27;4.90;;;3.47;;
3916;SDS011;1973;50.518;7.318;2023-07-31T01:46:54;4.10;;;2.90;;
3916;SDS011;1973;50.518;7.318;2023-07-31T01:49:21;5.27;;;2.93;;
3916;SDS011;1973;50.518;7.318;2023-07-31T01:51:47;5.63;;;3.13;;
3916;SDS011;1973;50.518;7.318;2023-07-31T01:54:14;3.70;;;3.20;;
3916;SDS011;1973;50.518;7.318;2023-07-31T01:56:40;7.50;;;4.00;;
3916;SDS011;1973;50.518;7.318;2023-07-31T01:59:08;5.20;;;3.03;;
3916;SDS011;1973;50.518;7.318;2023-07-31T02:01:34;4.50;;;3.03;;
3916;SDS011;1973;50.518;7.318;2023-07-31T02:04:01;4.90;;;2.67;;
3916;SDS011;1973;50.518;7.318;2023-07-31T02:06:27;4.20;;;3.00;;
3916;SDS011;1973;50.518;7.318;2023-07-31T02:08:54;3.33;;;2.40;;
3916;SDS011;1973;50.518;7.318;2023-07-31T02:11:20;5.07;;;3.20;;
3916;SDS011;1973;50.518;7.318;2023-07-31T02:13:47;6.70;;;3.07;;
3916;SDS011;1973;50.518;7.318;2023-07-31T02:16:14;4.00;;;2.67;;
3916;SDS011;1973;50.518;7.318;2023-07-31T02:18:40;4.37;;;3.00;;
3916;SDS011;1973;50.518;7.318;2023-07-31T02:21:07;4.43;;;2.47;;
3916;SDS011;1973;50.518;7.318;2023-07-31T02:23:33;4.37;;;2.37;;
3916;SDS011;1973;50.518;7.318;2023-07-31T02:26:00;4.70;;;3.07;;
3916;SDS011;1973;50.518;7.318;2023-07-31T02:28:26;8.13;;;3.37;;
3916;SDS011;1973;50.518;7.318;2023-07-31T02:30:53;4.47;;;2.70;;
3916;SDS011;1973;50.518;7.318;2023-07-31T02:33:19;4.57;;;2.73;;
3916;SDS011;1973;50.518;7.318;2023-07-31T02:35:46;5.67;;;3.23;;
3916;SDS011;1973;50.518;7.318;2023-07-31T02:38:13;3.87;;;2.93;;
3916;SDS011;1973;50.518;7.318;2023-07-31T02:40:40;6.73;;;2.73;;
3916;SDS011;1973;50.518;7.318;2023-07-31T02:43:09;5.90;;;2.80;;
3916;SDS011;1973;50.518;7.318;2023-07-31T02:45:36;5.23;;;2.50;;
3916;SDS011;1973;50.518;7.318;2023-07-31T02:48:03;4.60;;;2.50;;
3916;SDS011;1973;50.518;7.318;2023-07-31T02:50:29;6.23;;;2.30;;
3916;SDS011;1973;50.518;7.318;2023-07-31T02:52:56;3.13;;;2.30;;
3916;SDS011;1973;50.518;7.318;2023-07-31T02:55:23;4.00;;;2.80;;
3916;SDS011;1973;50.518;7.318;2023-07-31T02:57:49;4.27;;;2.63;;
3916;SDS011;1973;50.518;7.318;2023-07-31T03:00:16;3.50;;;2.60;;
3916;SDS011;1973;50.518;7.318;2023-07-31T03:02:43;4.30;;;2.40;;
3916;SDS011;1973;50.518;7.318;2023-07-31T03:05:10;4.10;;;2.60;;
3916;SDS011;1973;50.518;7.318;2023-07-31T03:07:36;3.70;;;2.70;;
3916;SDS011;1973;50.518;7.318;2023-07-31T03:10:03;5.23;;;2.47;;
3916;SDS011;1973;50.518;7.318;2023-07-31T03:12:30;4.10;;;2.53;;
3916;SDS011;1973;50.518;7.318;2023-07-31T03:14:56;6.83;;;2.53;;
3916;SDS011;1973;50.518;7.318;2023-07-31T03:17:23;3.27;;;2.30;;
3916;SDS011;1973;50.518;7.318;2023-07-31T03:19:49;4.37;;;2.67;;
3916;SDS011;1973;50.518;7.318;2023-07-31T03:22:16;4.47;;;2.83;;
3916;SDS011;1973;50.518;7.318;2023-07-31T03:24:42;5.90;;;3.20;;
3916;SDS011;1973;50.518;7.318;2023-07-31T03:27:09;4.00;;;3.30;;
3916;SDS011;1973;50.518;7.318;2023-07-31T03:29:35;5.40;;;2.40;;
3916;SDS011;1973;50.518;7.318;2023-07-31T03:32:02;4.40;;;2.90;;
3916;SDS011;1973;50.518;7.318;2023-07-31T03:34:29;8.13;;;2.80;;
3916;SDS011;1973;50.518;7.318;2023-07-31T03:36:55;3.70;;;2.67;;
3916;SDS011;1973;50.518;7.318;2023-07-31T03:39:22;5.90;;;2.53;;
3916;SDS011;1973;50.518;7.318;2023-07-31T03:41:48;9.23;;;3.00;;
3916;SDS011;1973;50.518;7.318;2023-07-31T03:44:15;3.40;;;2.20;;
3916;SDS011;1973;50.518;7.318;2023-07-31T03:46:42;4.97;;;2.70;;
3916;SDS011;1973;50.518;7.318;2023-07-31T03:49:08;6.80;;;3.17;;
3916;SDS011;1973;50.518;7.318;2023-07-31T03:51:35;9.60;;;6.00;;
3916;SDS011;1973;50.518;7.318;2023-07-31T03:54:01;8.40;;;5.10;;
3916;SDS011;1973;50.518;7.318;2023-07-31T03:56:28;7.80;;;7.00;;
3916;SDS011;1973;50.518;7.318;2023-07-31T03:58:55;7.40;;;6.53;;
3916;SDS011;1973;50.518;7.318;2023-07-31T04:01:21;7.23;;;5.50;;
3916;SDS011;1973;50.518;7.318;2023-07-31T04:03:48;7.20;;;5.30;;
3916;SDS011;1973;50.518;7.318;2023-07-31T04:06:15;7.10;;;4.63;;
3916;SDS011;1973;50.518;7.318;2023-07-31T04:08:44;6.30;;;3.90;;
3916;SDS011;1973;50.518;7.318;2023-07-31T04:11:11;5.50;;;4.47;;
3916;SDS011;1973;50.518;7.318;2023-07-31T04:13:38;6.17;;;4.70;;
3916;SDS011;1973;50.518;7.318;2023-07-31T04:16:05;8.63;;;3.93;;
3916;SDS011;1973;50.518;7.318;2023-07-31T04:18:32;7.23;;;4.37;;
3916;SDS011;1973;50.518;7.318;2023-07-31T04:20:58;7.33;;;5.30;;
3916;SDS011;1973;50.518;7.318;2023-07-31T04:23:25;7.33;;;3.87;;
3916;SDS011;1973;50.518;7.318;2023-07-31T04:25:51;5.23;;;4.60;;
3916;SDS011;1973;50.518;7.318;2023-07-31T04:28:18;9.50;;;4.67;;
3916;SDS011;1973;50.518;7.318;2023-07-31T04:30:44;5.30;;;3.70;;
3916;SDS011;1973;50.518;7.318;2023-07-31T04:33:14;7.63;;;3.57;;
3916;SDS011;1973;50.518;7.318;2023-07-31T04:35:41;7.67;;;5.17;;
3916;SDS011;1973;50.518;7.318;2023-07-31T04:38:08;7.63;;;5.07;;
3916;SDS011;1973;50.518;7.318;2023-07-31T04:40:34;6.60;;;5.30;;
3916;SDS011;1973;50.518;7.318;2023-07-31T04:43:01;9.53;;;7.60;;
3916;SDS011;1973;50.518;7.318;2023-07-31T04:45:27;7.70;;;5.93;;
3916;SDS011;1973;50.518;7.318;2023-07-31T04:47:54;9.30;;;5.80;;
3916;SDS011;1973;50.518;7.318;2023-07-31T04:50:20;13.80;;;12.40;;
3916;SDS011;1973;50.518;7.318;2023-07-31T04:52:47;9.50;;;8.60;;
3916;SDS011;1973;50.518;7.318;2023-07-31T04:55:13;7.57;;;6.47;;
3916;SDS011;1973;50.518;7.318;2023-07-31T04:57:40;7.07;;;5.80;;
3916;SDS011;1973;50.518;7.318;2023-07-31T05:00:07;7.60;;;5.67;;
3916;SDS011;1973;50.518;7.318;2023-07-31T05:02:34;7.93;;;7.13;;
3916;SDS011;1973;50.518;7.318;2023-07-31T05:05:00;8.30;;;5.80;;
3916;SDS011;1973;50.518;7.318;2023-07-31T05:07:27;5.30;;;2.90;;
3916;SDS011;1973;50.518;7.318;2023-07-31T05:09:53;4.73;;;4.20;;
3916;SDS011;1973;50.518;7.318;2023-07-31T05:12:23;6.07;;;3.80;;
3916;SDS011;1973;50.518;7.318;2023-07-31T05:14:50;5.60;;;3.40;;
3916;SDS011;1973;50.518;7.318;2023-07-31T05:17:16;5.50;;;2.87;;
3916;SDS011;1973;50.518;7.318;2023-07-31T05:19:43;5.47;;;3.10;;
3916;SDS011;1973;50.518;7.318;2023-07-31T05:22:10;8.17;;;3.63;;
3916;SDS011;1973;50.518;7.318;2023-07-31T05:24:36;5.67;;;3.47;;
3916;SDS011;1973;50.518;7.318;2023-07-31T05:27:03;4.33;;;2.90;;
3916;SDS011;1973;50.518;7.318;2023-07-31T05:29:30;4.97;;;3.20;;
3916;SDS011;1973;50.518;7.318;2023-07-31T05:31:56;6.83;;;3.27;;
3916;SDS011;1973;50.518;7.318;2023-07-31T05:34:23;5.43;;;3.30;;
3916;SDS011;1973;50.518;7.318;2023-07-31T05:36:50;7.33;;;4.63;;
3916;SDS011;1973;50.518;7.318;2023-07-31T05:39:16;6.10;;;3.90;;
3916;SDS011;1973;50.518;7.318;2023-07-31T05:41:44;7.23;;;4.97;;
3916;SDS011;1973;50.518;7.318;2023-07-31T05:44:11;9.03;;;4.67;;
3916;SDS011;1973;50.518;7.318;2023-07-31T05:46:37;9.00;;;3.83;;
3916;SDS011;1973;50.518;7.318;2023-07-31T05:49:05;11.57;;;3.67;;
3916;SDS011;1973;50.518;7.318;2023-07-31T05:51:31;7.13;;;3.67;;
3916;SDS011;1973;50.518;7.318;2023-07-31T05:53:58;5.07;;;3.53;;
3916;SDS011;1973;50.518;7.318;2023-07-31T05:56:24;9.87;;;4.00;;
3916;SDS011;1973;50.518;7.318;2023-07-31T05:58:53;5.00;;;3.53;;
3916;SDS011;1973;50.518;7.318;2023-07-31T06:01:20;4.07;;;3.10;;
3916;SDS011;1973;50.518;7.318;2023-07-31T06:03:47;5.10;;;3.10;;
3916;SDS011;1973;50.518;7.318;2023-07-31T06:06:14;5.67;;;4.43;;
3916;SDS011;1973;50.518;7.318;2023-07-31T06:08:40;7.43;;;6.37;;
3916;SDS011;1973;50.518;7.318;2023-07-31T06:11:07;11.40;;;4.90;;
3916;SDS011;1973;50.518;7.318;2023-07-31T06:13:35;8.03;;;5.73;;
3916;SDS011;1973;50.518;7.318;2023-07-31T06:16:02;7.07;;;5.43;;
3916;SDS011;1973;50.518;7.318;2023-07-31T06:18:32;9.47;;;5.27;;
3916;SDS011;1973;50.518;7.318;2023-07-31T06:20:59;3.83;;;3.10;;
3916;SDS011;1973;50.518;7.318;2023-07-31T06:23:25;6.00;;;4.23;;
3916;SDS011;1973;50.518;7.318;2023-07-31T06:25:52;6.23;;;4.30;;
3916;SDS011;1973;50.518;7.318;2023-07-31T06:28:18;7.13;;;4.37;;
3916;SDS011;1973;50.518;7.318;2023-07-31T06:30:45;7.40;;;4.80;;
3916;SDS011;1973;50.518;7.318;2023-07-31T06:33:12;7.60;;;4.23;;
3916;SDS011;1973;50.518;7.318;2023-07-31T06:35:38;5.07;;;3.70;;
3916;SDS011;1973;50.518;7.318;2023-07-31T06:38:05;6.50;;;5.37;;
3916;SDS011;1973;50.518;7.318;2023-07-31T06:40:31;8.43;;;4.73;;
3916;SDS011;1973;50.518;7.318;2023-07-31T06:42:58;7.60;;;3.63;;
3916;SDS011;1973;50.518;7.318;2023-07-31T06:45:25;11.10;;;9.90;;
3916;SDS011;1973;50.518;7.318;2023-07-31T06:47:51;10.80;;;8.30;;
3916;SDS011;1973;50.518;7.318;2023-07-31T06:50:18;6.63;;;5.30;;
3916;SDS011;1973;50.518;7.318;2023-07-31T06:52:44;7.13;;;4.20;;
3916;SDS011;1973;50.518;7.318;2023-07-31T06:55:18;6.60;;;3.80;;
3916;SDS011;1973;50.518;7.318;2023-07-31T06:57:47;4.33;;;2.97;;
3916;SDS011;1973;50.518;7.318;2023-07-31T07:00:14;6.37;;;3.60;;
3916;SDS011;1973;50.518;7.318;2023-07-31T07:02:41;7.93;;;4.47;;
3916;SDS011;1973;50.518;7.318;2023-07-31T07:05:08;5.10;;;3.63;;
3916;SDS011;1973;50.518;7.318;2023-07-31T07:07:35;7.50;;;3.67;;
3916;SDS011;1973;50.518;7.318;2023-07-31T07:10:02;8.93;;;3.20;;
3916;SDS011;1973;50.518;7.318;2023-07-31T07:12:30;6.53;;;4.03;;
3916;SDS011;1973;50.518;7.318;2023-07-31T07:14:57;5.73;;;3.47;;
3916;SDS011;1973;50.518;7.318;2023-07-31T07:17:24;4.83;;;3.10;;
3916;SDS011;1973;50.518;7.318;2023-07-31T07:19:52;6.13;;;3.00;;
3916;SDS011;1973;50.518;7.318;2023-07-31T07:22:18;5.27;;;3.37;;
3916;SDS011;1973;50.518;7.318;2023-07-31T07:24:45;3.80;;;3.33;;
3916;SDS011;1973;50.518;7.318;2023-07-31T07:27:11;9.23;;;5.60;;
3916;SDS011;1973;50.518;7.318;2023-07-31T07:29:38;6.13;;;3.90;;
3916;SDS011;1973;50.518;7.318;2023-07-31T07:32:05;7.23;;;3.67;;
3916;SDS011;1973;50.518;7.318;2023-07-31T07:34:31;7.27;;;3.83;;
3916;SDS011;1973;50.518;7.318;2023-07-31T07:36:58;4.90;;;3.00;;
3916;SDS011;1973;50.518;7.318;2023-07-31T07:39:25;4.80;;;3.33;;
3916;SDS011;1973;50.518;7.318;2023-07-31T07:41:51;6.33;;;3.43;;
3916;SDS011;1973;50.518;7.318;2023-07-31T07:44:19;13.03;;;9.43;;
3916;SDS011;1973;50.518;7.318;2023-07-31T07:46:46;8.43;;;6.70;;
3916;SDS011;1973;50.518;7.318;2023-07-31T07:49:12;8.97;;;4.90;;
3916;SDS011;1973;50.518;7.318;2023-07-31T07:51:39;8.23;;;4.83;;
3916;SDS011;1973;50.518;7.318;2023-07-31T07:54:06;8.10;;;5.40;;
3916;SDS011;1973;50.518;7.318;2023-07-31T07:56:33;11.10;;;4.77;;
3916;SDS011;1973;50.518;7.318;2023-07-31T07:58:59;10.93;;;5.20;;
3916;SDS011;1973;50.518;7.318;2023-07-31T08:01:26;8.53;;;5.20;;
3916;SDS011;1973;50.518;7.318;2023-07-31T08:03:52;8.67;;;5.60;;
3916;SDS011;1973;50.518;7.318;2023-07-31T08:06:19;7.33;;;4.30;;
3916;SDS011;1973;50.518;7.318;2023-07-31T08:08:46;5.77;;;4.37;;
3916;SDS011;1973;50.518;7.318;2023-07-31T08:11:12;10.47;;;4.20;;
3916;SDS011;1973;50.518;7.318;2023-07-31T08:13:39;5.10;;;3.77;;
3916;SDS011;1973;50.518;7.318;2023-07-31T08:16:05;6.33;;;4.13;;
3916;SDS011;1973;50.518;7.318;2023-07-31T08:18:32;7.63;;;3.80;;
3916;SDS011;1973;50.518;7.318;2023-07-31T08:21:02;6.83;;;3.77;;
3916;SDS011;1973;50.518;7.318;2023-07-31T08:23:29;5.17;;;3.57;;
3916;SDS011;1973;50.518;7.318;2023-07-31T08:25:55;4.20;;;3.10;;
3916;SDS011;1973;50.518;7.318;2023-07-31T08:28:22;4.40;;;3.43;;
3916;SDS011;1973;50.518;7.318;2023-07-31T08:30:49;5.20;;;3.30;;
3916;SDS011;1973;50.518;7.318;2023-07-31T08:33:17;4.57;;;2.90;;
3916;SDS011;1973;50.518;7.318;2023-07-31T08:35:43;6.10;;;3.90;;
3916;SDS011;1973;50.518;7.318;2023-07-31T08:38:11;7.63;;;3.70;;
3916;SDS011;1973;50.518;7.318;2023-07-31T08:40:38;6.40;;;4.00;;
3916;SDS011;1973;50.518;7.318;2023-07-31T08:43:05;7.63;;;4.07;;
3916;SDS011;1973;50.518;7.318;2023-07-31T08:45:32;7.57;;;4.50;;
3916;SDS011;1973;50.518;7.318;2023-07-31T08:47:59;7.90;;;4.07;;
3916;SDS011;1973;50.518;7.318;2023-07-31T08:50:25;13.10;;;4.60;;
3916;SDS011;1973;50.518;7.318;2023-07-31T08:52:52;8.40;;;4.40;;
3916;SDS011;1973;50.518;7.318;2023-07-31T08:55:21;6.57;;;4.60;;
3916;SDS011;1973;50.518;7.318;2023-07-31T08:57:53;5.70;;;4.27;;
3916;SDS011;1973;50.518;7.318;2023-07-31T09:00:22;7.10;;;4.20;;
3916;SDS011;1973;50.518;7.318;2023-07-31T09:02:59;6.27;;;4.20;;
3916;SDS011;1973;50.518;7.318;2023-07-31T09:05:29;7.17;;;5.20;;
3916;SDS011;1973;50.518;7.318;2023-07-31T09:07:57;6.40;;;3.87;;
3916;SDS011;1973;50.518;7.318;2023-07-31T09:10:24;4.83;;;3.80;;
3916;SDS011;1973;50.518;7.318;2023-07-31T09:12:52;5.83;;;3.37;;
3916;SDS011;1973;50.518;7.318;2023-07-31T09:15:18;7.93;;;4.40;;
3916;SDS011;1973;50.518;7.318;2023-07-31T09:18:01;5.63;;;3.40;;
3916;SDS011;1973;50.518;7.318;2023-07-31T09:20:29;5.87;;;3.53;;
3916;SDS011;1973;50.518;7.318;2023-07-31T09:22:55;6.93;;;3.97;;
3916;SDS011;1973;50.518;7.318;2023-07-31T09:25:23;5.97;;;3.70;;
3916;SDS011;1973;50.518;7.318;2023-07-31T09:27:57;4.93;;;3.40;;
3916;SDS011;1973;50.518;7.318;2023-07-31T09:30:24;7.10;;;4.47;;
3916;SDS011;1973;50.518;7.318;2023-07-31T09:32:51;8.30;;;3.80;;
3916;SDS011;1973;50.518;7.318;2023-07-31T09:35:30;6.57;;;3.80;;
3916;SDS011;1973;50.518;7.318;2023-07-31T09:37:59;5.77;;;3.93;;
3916;SDS011;1973;50.518;7.318;2023-07-31T09:40:28;4.83;;;3.40;;
3916;SDS011;1973;50.518;7.318;2023-07-31T09:42:56;6.80;;;4.10;;
3916;SDS011;1973;50.518;7.318;2023-07-31T09:45:27;5.93;;;3.70;;
3916;SDS011;1973;50.518;7.318;2023-07-31T09:48:11;6.80;;;4.30;;
3916;SDS011;1973;50.518;7.318;2023-07-31T09:50:39;7.50;;;3.77;;
3916;SDS011;1973;50.518;7.318;2023-07-31T09:53:06;7.80;;;4.03;;
3916;SDS011;1973;50.518;7.318;2023-07-31T09:55:35;6.70;;;5.07;;
3916;SDS011;1973;50.518;7.318;2023-07-31T09:58:03;6.77;;;4.17;;
3916;SDS011;1973;50.518;7.318;2023-07-31T10:00:31;5.33;;;3.63;;
3916;SDS011;1973;50.518;7.318;2023-07-31T10:02:59;7.90;;;4.47;;
3916;SDS011;1973;50.518;7.318;2023-07-31T10:05:30;5.43;;;3.90;;
3916;SDS011;1973;50.518;7.318;2023-07-31T10:08:00;4.50;;;2.80;;
3916;SDS011;1973;50.518;7.318;2023-07-31T10:10:27;4.63;;;2.63;;
3916;SDS011;1973;50.518;7.318;2023-07-31T10:12:54;3.57;;;2.20;;
3916;SDS011;1973;50.518;7.318;2023-07-31T10:15:22;7.37;;;4.83;;
3916;SDS011;1973;50.518;7.318;2023-07-31T10:17:50;8.20;;;5.80;;
3916;SDS011;1973;50.518;7.318;2023-07-31T10:20:17;8.50;;;7.63;;
3916;SDS011;1973;50.518;7.318;2023-07-31T10:22:44;5.07;;;4.37;;
3916;SDS011;1973;50.518;7.318;2023-07-31T10:25:15;7.20;;;3.27;;
3916;SDS011;1973;50.518;7.318;2023-07-31T10:27:42;4.80;;;2.30;;
3916;SDS011;1973;50.518;7.318;2023-07-31T10:30:12;8.00;;;3.40;;
3916;SDS011;1973;50.518;7.318;2023-07-31T10:32:45;4.90;;;3.07;;
3916;SDS011;1973;50.518;7.318;2023-07-31T10:35:14;3.93;;;2.20;;
3916;SDS011;1973;50.518;7.318;2023-07-31T10:37:43;3.87;;;2.23;;
3916;SDS011;1973;50.518;7.318;2023-07-31T10:40:11;4.70;;;2.33;;
3916;SDS011;1973;50.518;7.318;2023-07-31T10:45:37;4.10;;;2.73;;
3916;SDS011;1973;50.518;7.318;2023-07-31T10:50:45;5.77;;;2.83;;
3916;SDS011;1973;50.518;7.318;2023-07-31T10:53:30;4.70;;;3.37;;
3916;SDS011;1973;50.518;7.318;2023-07-31T10:55:59;4.33;;;2.17;;
3916;SDS011;1973;50.518;7.318;2023-07-31T10:58:27;3.40;;;2.43;;
3916;SDS011;1973;50.518;7.318;2023-07-31T11:00:55;3.10;;;2.13;;
3916;SDS011;1973;50.518;7.318;2023-07-31T11:03:27;4.47;;;2.50;;
3916;SDS011;1973;50.518;7.318;2023-07-31T11:06:08;5.60;;;2.30;;
3916;SDS011;1973;50.518;7.318;2023-07-31T11:08:36;2.77;;;1.80;;
3916;SDS011;1973;50.518;7.318;2023-07-31T11:11:10;2.77;;;1.70;;
3916;SDS011;1973;50.518;7.318;2023-07-31T11:13:43;4.47;;;1.73;;
3916;SDS011;1973;50.518;7.318;2023-07-31T11:16:19;4.00;;;1.73;;
3916;SDS011;1973;50.518;7.318;2023-07-31T11:18:47;3.77;;;1.80;;
3916;SDS011;1973;50.518;7.318;2023-07-31T11:21:16;2.70;;;1.57;;
3916;SDS011;1973;50.518;7.318;2023-07-31T11:23:51;2.83;;;1.93;;
3916;SDS011;1973;50.518;7.318;2023-07-31T11:26:19;2.90;;;1.77;;
3916;SDS011;1973;50.518;7.318;2023-07-31T11:28:46;5.40;;;1.70;;
3916;SDS011;1973;50.518;7.318;2023-07-31T11:31:14;2.70;;;1.77;;
3916;SDS011;1973;50.518;7.318;2023-07-31T11:33:41;3.27;;;1.77;;
3916;SDS011;1973;50.518;7.318;2023-07-31T11:36:17;2.43;;;1.87;;
3916;SDS011;1973;50.518;7.318;2023-07-31T11:38:45;2.80;;;1.63;;
3916;SDS011;1973;50.518;7.318;2023-07-31T11:41:13;3.30;;;2.00;;
3916;SDS011;1973;50.518;7.318;2023-07-31T11:43:42;4.00;;;1.77;;
3916;SDS011;1973;50.518;7.318;2023-07-31T11:46:09;2.70;;;1.80;;
3916;SDS011;1973;50.518;7.318;2023-07-31T11:48:36;2.90;;;1.60;;
3916;SDS011;1973;50.518;7.318;2023-07-31T11:51:04;3.53;;;1.57;;
3916;SDS011;1973;50.518;7.318;2023-07-31T11:53:36;2.60;;;1.50;;
3916;SDS011;1973;50.518;7.318;2023-07-31T11:56:10;3.00;;;1.40;;
3916;SDS011;1973;50.518;7.318;2023-07-31T11:58:39;2.10;;;1.73;;
3916;SDS011;1973;50.518;7.318;2023-07-31T12:01:07;3.87;;;2.03;;
3916;SDS011;1973;50.518;7.318;2023-07-31T12:03:35;3.30;;;2.13;;
3916;SDS011;1973;50.518;7.318;2023-07-31T12:06:02;3.47;;;1.93;;
3916;SDS011;1973;50.518;7.318;2023-07-31T12:08:29;4.00;;;1.80;;
3916;SDS011;1973;50.518;7.318;2023-07-31T12:11:01;2.43;;;2.10;;
3916;SDS011;1973;50.518;7.318;2023-07-31T12:13:32;3.83;;;2.30;;
3916;SDS011;1973;50.518;7.318;2023-07-31T12:16:00;3.50;;;2.17;;
3916;SDS011;1973;50.518;7.318;2023-07-31T12:18:33;2.73;;;2.17;;
3916;SDS011;1973;50.518;7.318;2023-07-31T12:21:03;3.60;;;2.63;;
3916;SDS011;1973;50.518;7.318;2023-07-31T12:23:32;4.80;;;2.97;;
3916;SDS011;1973;50.518;7.318;2023-07-31T12:26:00;4.20;;;3.50;;
3916;SDS011;1973;50.518;7.318;2023-07-31T12:28:39;5.23;;;3.47;;
3916;SDS011;1973;50.518;7.318;2023-07-31T12:31:31;5.00;;;2.90;;
3916;SDS011;1973;50.518;7.318;2023-07-31T12:34:00;4.37;;;3.13;;
3916;SDS011;1973;50.518;7.318;2023-07-31T12:36:27;4.70;;;3.80;;
3916;SDS011;1973;50.518;7.318;2023-07-31T12:38:55;4.70;;;3.67;;
3916;SDS011;1973;50.518;7.318;2023-07-31T12:41:23;5.83;;;3.60;;
3916;SDS011;1973;50.518;7.318;2023-07-31T12:43:49;5.90;;;3.77;;
3916;SDS011;1973;50.518;7.318;2023-07-31T12:46:16;5.07;;;3.47;;
3916;SDS011;1973;50.518;7.318;2023-07-31T12:48:43;5.13;;;3.50;;
3916;SDS011;1973;50.518;7.318;2023-07-31T12:51:09;6.03;;;3.30;;
3916;SDS011;1973;50.518;7.318;2023-07-31T12:53:36;4.60;;;3.60;;
3916;SDS011;1973;50.518;7.318;2023-07-31T12:56:03;4.40;;;3.30;;
3916;SDS011;1973;50.518;7.318;2023-07-31T12:58:30;5.00;;;3.17;;
3916;SDS011;1973;50.518;7.318;2023-07-31T13:00:56;5.17;;;3.03;;
3916;SDS011;1973;50.518;7.318;2023-07-31T13:03:23;3.97;;;3.03;;
3916;SDS011;1973;50.518;7.318;2023-07-31T13:05:50;4.50;;;3.77;;
3916;SDS011;1973;50.518;7.318;2023-07-31T13:08:17;5.87;;;2.73;;
3916;SDS011;1973;50.518;7.318;2023-07-31T13:10:44;4.10;;;2.80;;
3916;SDS011;1973;50.518;7.318;2023-07-31T13:13:14;3.67;;;2.87;;
3916;SDS011;1973;50.518;7.318;2023-07-31T13:15:43;3.00;;;2.57;;
3916;SDS011;1973;50.518;7.318;2023-07-31T13:18:10;5.00;;;2.50;;
3916;SDS011;1973;50.518;7.318;2023-07-31T13:20:37;3.63;;;2.13;;
3916;SDS011;1973;50.518;7.318;2023-07-31T13:23:04;2.90;;;2.27;;
3916;SDS011;1973;50.518;7.318;2023-07-31T13:25:31;5.43;;;3.00;;
3916;SDS011;1973;50.518;7.318;2023-07-31T13:27:57;4.23;;;2.17;;
3916;SDS011;1973;50.518;7.318;2023-07-31T13:30:28;3.30;;;2.53;;
3916;SDS011;1973;50.518;7.318;2023-07-31T13:32:54;6.93;;;2.50;;
3916;SDS011;1973;50.518;7.318;2023-07-31T13:35:21;3.13;;;1.70;;
3916;SDS011;1973;50.518;7.318;2023-07-31T13:37:48;2.90;;;1.90;;
3916;SDS011;1973;50.518;7.318;2023-07-31T13:40:14;4.10;;;2.13;;
3916;SDS011;1973;50.518;7.318;2023-07-31T13:42:41;3.10;;;2.03;;
3916;SDS011;1973;50.518;7.318;2023-07-31T13:45:07;2.77;;;2.23;;
3916;SDS011;1973;50.518;7.318;2023-07-31T13:47:34;3.20;;;2.00;;
3916;SDS011;1973;50.518;7.318;2023-07-31T13:50:03;3.30;;;1.60;;
3916;SDS011;1973;50.518;7.318;2023-07-31T13:52:30;2.80;;;2.10;;
3916;SDS011;1973;50.518;7.318;2023-07-31T13:54:57;3.80;;;2.90;;
3916;SDS011;1973;50.518;7.318;2023-07-31T13:57:23;5.50;;;1.90;;
3916;SDS011;1973;50.518;7.318;2023-07-31T13:59:50;1.93;;;1.53;;
3916;SDS011;1973;50.518;7.318;2023-07-31T14:02:17;2.60;;;1.47;;
3916;SDS011;1973;50.518;7.318;2023-07-31T14:04:43;2.90;;;1.63;;
3916;SDS011;1973;50.518;7.318;2023-07-31T14:07:10;2.60;;;1.80;;
3916;SDS011;1973;50.518;7.318;2023-07-31T14:09:37;2.20;;;1.77;;
3916;SDS011;1973;50.518;7.318;2023-07-31T14:12:03;2.60;;;1.87;;
3916;SDS011;1973;50.518;7.318;2023-07-31T14:14:30;3.83;;;2.07;;
3916;SDS011;1973;50.518;7.318;2023-07-31T14:17:00;2.90;;;1.97;;
3916;SDS011;1973;50.518;7.318;2023-07-31T14:19:27;3.47;;;2.10;;
3916;SDS011;1973;50.518;7.318;2023-07-31T14:21:54;3.27;;;1.90;;
3916;SDS011;1973;50.518;7.318;2023-07-31T14:24:35;2.10;;;1.73;;
3916;SDS011;1973;50.518;7.318;2023-07-31T14:27:02;3.63;;;3.20;;
3916;SDS011;1973;50.518;7.318;2023-07-31T14:29:29;5.60;;;2.17;;
3916;SDS011;1973;50.518;7.318;2023-07-31T14:31:56;7.00;;;3.60;;
3916;SDS011;1973;50.518;7.318;2023-07-31T14:34:22;2.80;;;2.13;;
3916;SDS011;1973;50.518;7.318;2023-07-31T14:36:49;6.50;;;2.33;;
3916;SDS011;1973;50.518;7.318;2023-07-31T14:39:16;2.87;;;1.90;;
3916;SDS011;1973;50.518;7.318;2023-07-31T14:41:43;4.33;;;2.83;;
3916;SDS011;1973;50.518;7.318;2023-07-31T14:44:09;3.93;;;2.70;;
3916;SDS011;1973;50.518;7.318;2023-07-31T14:46:36;6.70;;;4.80;;
3916;SDS011;1973;50.518;7.318;2023-07-31T14:49:03;6.43;;;3.33;;
3916;SDS011;1973;50.518;7.318;2023-07-31T14:51:29;5.53;;;2.67;;
3916;SDS011;1973;50.518;7.318;2023-07-31T14:53:56;6.73;;;2.70;;
3916;SDS011;1973;50.518;7.318;2023-07-31T14:56:23;5.80;;;3.37;;
3916;SDS011;1973;50.518;7.318;2023-07-31T14:58:49;3.07;;;2.30;;
3916;SDS011;1973;50.518;7.318;2023-07-31T15:01:16;3.53;;;1.87;;
3916;SDS011;1973;50.518;7.318;2023-07-31T15:03:42;3.07;;;2.03;;
3916;SDS011;1973;50.518;7.318;2023-07-31T15:06:09;3.03;;;1.73;;
3916;SDS011;1973;50.518;7.318;2023-07-31T15:08:36;3.43;;;2.70;;
3916;SDS011;1973;50.518;7.318;2023-07-31T15:11:02;2.50;;;1.90;;
3916;SDS011;1973;50.518;7.318;2023-07-31T15:13:29;4.17;;;2.00;;
3916;SDS011;1973;50.518;7.318;2023-07-31T15:15:59;3.50;;;2.13;;
3916;SDS011;1973;50.518;7.318;2023-07-31T15:18:26;3.90;;;2.30;;
3916;SDS011;1973;50.518;7.318;2023-07-31T15:20:53;4.93;;;2.40;;
3916;SDS011;1973;50.518;7.318;2023-07-31T15:23:20;5.43;;;1.93;;
3916;SDS011;1973;50.518;7.318;2023-07-31T15:25:46;3.10;;;2.33;;
3916;SDS011;1973;50.518;7.318;2023-07-31T15:28:13;3.80;;;3.20;;